Time;durP1;ratioP1;P1;durP2;ratioP2;P2;SDS_P1;SDS_P2;PMS_P1;PMS_P2;Temp;Humidity;BMP_temperature;BMP_pressure;BME280_temperature;BME280_humidity;BME280_pressure;Samples;Min_cycle;Max_cycle;Signal;HPM_P1;HPM_P2
2022/05/02 00:00:32;;;;;;;0.30;0.30;;;8.60;99.90;;;;;;5022709;28;20053;-68
2022/05/02 00:02:58;;;;;;;0.85;0.85;;;8.60;99.90;;;;;;5023652;28;20045;-68
2022/05/02 00:05:24;;;;;;;0.38;0.38;;;8.60;99.90;;;;;;5022332;28;20041;-68
2022/05/02 00:07:50;;;;;;;0.50;0.50;;;8.60;99.90;;;;;;5012942;28;20049;-68
2022/05/02 00:10:16;;;;;;;0.10;0.10;;;8.60;99.90;;;;;;5020238;28;20095;-68
2022/05/02 00:12:42;;;;;;;3.30;1.40;;;8.60;99.90;;;;;;5013519;28;20117;-68
2022/05/02 00:15:08;;;;;;;0.10;0.10;;;8.50;99.90;;;;;;5013715;28;20191;-68
2022/05/02 00:20:18;;;;;;;0.10;0.10;;;8.50;99.90;;;;;;5025183;28;20099;-68
2022/05/02 00:22:45;;;;;;;0.10;0.10;;;8.40;99.90;;;;;;5024251;28;20124;-68
2022/05/02 00:25:11;;;;;;;0.10;0.10;;;8.40;99.90;;;;;;5019126;28;20053;-67
2022/05/02 00:27:40;;;;;;;0.28;0.28;;;8.40;99.90;;;;;;5019531;28;20037;-67
2022/05/02 00:30:07;;;;;;;0.30;0.30;;;8.40;99.90;;;;;;5017378;28;20562;-66
2022/05/02 00:32:33;;;;;;;0.17;0.17;;;8.40;99.90;;;;;;5017210;28;20037;-67
2022/05/02 00:34:58;;;;;;;0.20;0.20;;;8.30;99.90;;;;;;5011058;28;20406;-68
2022/05/02 00:37:24;;;;;;;0.10;0.10;;;8.20;99.90;;;;;;5015849;28;20050;-66
2022/05/02 00:39:50;;;;;;;0.10;0.10;;;8.20;99.90;;;;;;5016465;28;20046;-68
2022/05/02 00:42:15;;;;;;;0.10;0.10;;;8.20;99.90;;;;;;5023184;28;20045;-67
2022/05/02 00:44:43;;;;;;;0.10;0.10;;;8.20;99.90;;;;;;5024642;28;20146;-68
2022/05/02 00:47:09;;;;;;;0.10;0.10;;;8.10;99.90;;;;;;5019986;28;20076;-68
2022/05/02 00:49:39;;;;;;;0.10;0.10;;;8.10;99.90;;;;;;5015031;28;20130;-68
2022/05/02 00:52:05;;;;;;;0.10;0.10;;;8.10;99.90;;;;;;5024440;28;20065;-68
2022/05/02 00:54:32;;;;;;;0.22;0.22;;;8.10;99.90;;;;;;5017538;28;20049;-68
2022/05/02 00:56:59;;;;;;;1.45;1.35;;;8.00;99.90;;;;;;5015663;28;20042;-66
2022/05/02 00:59:25;;;;;;;0.10;0.10;;;8.00;99.90;;;;;;5016269;28;20389;-67
2022/05/02 01:01:51;;;;;;;0.10;0.10;;;7.90;99.90;;;;;;5017433;28;20042;-68
2022/05/02 01:04:17;;;;;;;0.20;0.20;;;7.90;99.90;;;;;;5029884;28;20846;-70
2022/05/02 01:09:27;;;;;;;0.15;0.15;;;7.90;99.90;;;;;;5023427;28;20042;-68
2022/05/02 01:11:55;;;;;;;0.10;0.10;;;7.90;99.90;;;;;;5025649;28;20053;-69
2022/05/02 01:14:20;;;;;;;0.73;0.73;;;7.90;99.90;;;;;;5018149;28;20523;-68
2022/05/02 01:16:46;;;;;;;0.20;0.20;;;8.00;99.90;;;;;;5020382;28;20085;-70
2022/05/02 01:19:11;;;;;;;0.20;0.20;;;7.90;99.90;;;;;;5019857;28;20037;-70
2022/05/02 01:21:38;;;;;;;0.10;0.10;;;7.90;99.90;;;;;;5017852;28;20056;-70
2022/05/02 01:24:04;;;;;;;0.10;0.10;;;7.90;99.90;;;;;;5024379;28;20439;-70
2022/05/02 01:26:30;;;;;;;0.10;0.10;;;7.80;99.90;;;;;;5022805;28;20393;-70
2022/05/02 01:28:58;;;;;;;0.20;0.20;;;7.80;99.90;;;;;;5027384;28;20056;-70
2022/05/02 01:31:23;;;;;;;0.10;0.10;;;7.80;99.90;;;;;;5018112;28;20037;-70
2022/05/02 01:33:50;;;;;;;0.80;0.63;;;7.80;99.90;;;;;;5015617;28;20087;-70
2022/05/02 01:36:17;;;;;;;0.10;0.10;;;7.80;99.90;;;;;;5023906;28;20063;-70
2022/05/02 01:38:43;;;;;;;0.10;0.10;;;7.80;99.90;;;;;;5023239;28;20883;-70
2022/05/02 01:41:10;;;;;;;0.10;0.10;;;7.80;99.90;;;;;;5024654;28;20132;-70
2022/05/02 01:43:36;;;;;;;0.85;0.85;;;7.80;99.90;;;;;;5025081;28;20408;-70
2022/05/02 01:46:04;;;;;;;0.10;0.10;;;7.70;99.90;;;;;;5021736;28;20038;-69
2022/05/02 01:48:30;;;;;;;0.88;0.85;;;7.70;99.90;;;;;;5018770;28;20045;-70
2022/05/02 01:50:57;;;;;;;0.03;0.03;;;7.70;99.90;;;;;;5023273;28;20050;-70
2022/05/02 01:53:22;;;;;;;0.10;0.10;;;7.70;99.90;;;;;;5029782;28;20108;-70
2022/05/02 01:55:48;;;;;;;0.20;0.20;;;7.70;99.90;;;;;;5027241;28;20037;-70
2022/05/02 01:58:14;;;;;;;0.10;0.10;;;7.70;99.90;;;;;;5017257;28;20151;-70
2022/05/02 02:00:39;;;;;;;1.20;0.82;;;7.60;99.90;;;;;;5023321;28;20041;-70
2022/05/02 02:03:05;;;;;;;0.10;0.10;;;7.50;99.90;;;;;;5019058;28;20050;-70
2022/05/02 02:05:49;;;;;;;0.10;0.10;;;7.50;99.90;;;;;;5020361;28;20045;-70
2022/05/02 02:08:17;;;;;;;0.40;0.40;;;7.50;99.90;;;;;;5029250;28;20053;-69
2022/05/02 02:10:43;;;;;;;0.60;0.60;;;7.40;99.90;;;;;;5018447;28;20053;-70
2022/05/02 02:13:10;;;;;;;0.10;0.10;;;7.40;99.90;;;;;;5022335;28;20045;-70
2022/05/02 02:15:36;;;;;;;0.10;0.10;;;7.40;99.90;;;;;;5026074;28;20053;-69
2022/05/02 02:18:02;;;;;;;0.10;0.10;;;7.40;99.90;;;;;;5019336;28;20045;-70
2022/05/02 02:20:27;;;;;;;0.10;0.10;;;7.40;99.90;;;;;;5016314;28;20580;-70
2022/05/02 02:22:54;;;;;;;1.55;0.80;;;7.30;99.90;;;;;;5025787;28;20120;-70
2022/05/02 02:25:20;;;;;;;0.40;0.40;;;7.30;99.90;;;;;;5018724;28;20053;-70
2022/05/02 02:27:48;;;;;;;0.10;0.10;;;7.30;99.90;;;;;;5023269;28;20046;-70
2022/05/02 02:30:19;;;;;;;0.20;0.20;;;7.30;99.90;;;;;;5024889;28;20052;-70
2022/05/02 02:32:45;;;;;;;0.20;0.20;;;7.30;99.90;;;;;;5022799;28;20132;-69
2022/05/02 02:35:10;;;;;;;0.10;0.10;;;7.30;99.90;;;;;;5021986;28;20045;-69
2022/05/02 02:37:36;;;;;;;0.60;0.55;;;7.30;99.90;;;;;;5016004;28;20140;-70
2022/05/02 02:40:03;;;;;;;0.52;0.30;;;7.20;99.90;;;;;;5025885;28;20500;-69
2022/05/02 02:42:28;;;;;;;0.30;0.30;;;7.10;99.90;;;;;;5025665;28;20497;-70
2022/05/02 02:44:54;;;;;;;0.20;0.20;;;7.20;99.90;;;;;;5019244;28;20119;-69
2022/05/02 02:47:19;;;;;;;0.60;0.30;;;7.20;99.90;;;;;;5029960;28;20053;-69
2022/05/02 02:49:45;;;;;;;0.15;0.15;;;7.10;99.90;;;;;;5027720;28;20045;-70
2022/05/02 02:52:10;;;;;;;0.20;0.20;;;7.10;99.90;;;;;;5017473;28;20069;-70
2022/05/02 02:54:36;;;;;;;0.10;0.10;;;7.10;99.90;;;;;;5027160;28;20037;-69
2022/05/02 02:57:01;;;;;;;0.17;0.17;;;7.10;99.90;;;;;;5018997;28;20057;-70
2022/05/02 02:59:27;;;;;;;0.10;0.10;;;7.00;99.90;;;;;;5025044;28;20048;-70
2022/05/02 03:01:55;;;;;;;0.15;0.15;;;7.10;99.90;;;;;;5024827;28;20060;-70
2022/05/02 03:07:05;;;;;;;0.32;0.32;;;7.00;99.90;;;;;;5017001;28;20365;-70
2022/05/02 03:09:31;;;;;;;0.20;0.20;;;7.00;99.90;;;;;;5023415;28;20052;-70
2022/05/02 03:11:58;;;;;;;0.38;0.38;;;7.00;99.90;;;;;;5018816;28;20257;-70
2022/05/02 03:14:23;;;;;;;0.65;0.65;;;7.00;99.90;;;;;;5015384;28;20048;-70
2022/05/02 03:16:49;;;;;;;0.10;0.10;;;7.10;99.90;;;;;;5023328;28;20042;-70
2022/05/02 03:19:14;;;;;;;0.10;0.10;;;7.00;99.90;;;;;;5027132;28;20140;-69
2022/05/02 03:21:40;;;;;;;0.00;0.00;;;7.00;99.90;;;;;;5013779;28;20064;-70
2022/05/02 03:24:06;;;;;;;0.85;0.25;;;7.00;99.90;;;;;;5018708;28;20076;-70
2022/05/02 03:26:32;;;;;;;0.10;0.10;;;7.00;99.90;;;;;;5021827;28;20568;-70
2022/05/02 03:28:57;;;;;;;0.65;0.65;;;7.00;99.90;;;;;;5013125;28;20042;-70
2022/05/02 03:31:23;;;;;;;0.38;0.38;;;7.00;99.90;;;;;;5016745;28;20198;-70
2022/05/02 03:33:48;;;;;;;0.20;0.20;;;7.00;99.90;;;;;;5025484;28;20138;-70
2022/05/02 03:36:14;;;;;;;0.52;0.52;;;7.10;99.90;;;;;;5024945;28;20044;-69
2022/05/02 03:38:39;;;;;;;0.10;0.10;;;7.00;99.90;;;;;;5016987;28;20109;-70
2022/05/02 03:41:05;;;;;;;0.75;0.75;;;7.10;99.90;;;;;;5025318;28;20057;-69
2022/05/02 03:43:32;;;;;;;0.50;0.50;;;7.00;99.90;;;;;;5025328;28;20060;-70
2022/05/02 03:45:57;;;;;;;0.20;0.20;;;7.00;99.90;;;;;;5017129;28;20045;-70
2022/05/02 03:48:23;;;;;;;0.10;0.10;;;7.00;99.90;;;;;;5026992;28;20880;-69
2022/05/02 03:50:48;;;;;;;0.25;0.25;;;7.00;99.90;;;;;;5026548;28;20488;-69
2022/05/02 03:53:17;;;;;;;0.25;0.25;;;7.00;99.90;;;;;;5023607;28;20046;-69
2022/05/02 03:55:43;;;;;;;0.13;0.13;;;6.90;99.90;;;;;;5014318;28;20053;-70
2022/05/02 03:58:09;;;;;;;0.73;0.73;;;6.90;99.90;;;;;;5028743;28;20052;-69
2022/05/02 04:00:34;;;;;;;0.50;0.50;;;6.90;99.90;;;;;;5027994;28;20397;-70
2022/05/02 04:03:01;;;;;;;0.13;0.13;;;7.00;99.90;;;;;;5017496;28;20047;-69
2022/05/02 04:05:26;;;;;;;0.50;0.50;;;6.90;99.90;;;;;;5024530;28;20070;-70
2022/05/02 04:07:52;;;;;;;0.10;0.10;;;6.90;99.90;;;;;;5022394;28;20077;-70
2022/05/02 04:10:18;;;;;;;0.25;0.25;;;6.80;99.90;;;;;;5014193;28;20057;-70
2022/05/02 04:12:43;;;;;;;0.00;0.00;;;6.80;99.90;;;;;;5013412;28;20049;-70
2022/05/02 04:15:09;;;;;;;0.10;0.10;;;6.80;99.90;;;;;;5023649;28;20045;-70
2022/05/02 04:17:35;;;;;;;0.20;0.20;;;6.80;99.90;;;;;;5025671;28;20061;-70
2022/05/02 04:20:02;;;;;;;0.57;0.57;;;6.80;99.90;;;;;;5019692;28;20132;-70
2022/05/02 04:22:28;;;;;;;0.20;0.20;;;6.80;99.90;;;;;;5023605;28;20378;-70
2022/05/02 04:24:53;;;;;;;1.20;1.13;;;6.80;99.90;;;;;;5024337;28;20040;-70
2022/05/02 04:27:19;;;;;;;0.50;0.32;;;6.80;99.90;;;;;;5017031;28;20049;-70
2022/05/02 04:29:44;;;;;;;0.10;0.10;;;6.70;99.90;;;;;;5018674;28;20515;-70
2022/05/02 04:32:10;;;;;;;0.45;0.45;;;6.80;99.90;;;;;;5017522;28;20424;-71
2022/05/02 04:34:35;;;;;;;0.10;0.10;;;6.80;99.90;;;;;;5015168;28;20042;-70
2022/05/02 04:37:01;;;;;;;0.10;0.10;;;6.80;99.90;;;;;;5026469;28;20053;-69
2022/05/02 04:39:26;;;;;;;0.75;0.75;;;6.80;99.90;;;;;;5022559;28;20037;-70
2022/05/02 04:41:52;;;;;;;0.10;0.10;;;6.80;99.90;;;;;;5019882;28;21962;-70
2022/05/02 04:44:17;;;;;;;2.50;1.15;;;6.90;99.90;;;;;;5023979;28;20042;-69
2022/05/02 04:46:43;;;;;;;0.28;0.28;;;6.90;99.90;;;;;;5021707;28;20474;-70
2022/05/02 04:49:08;;;;;;;0.30;0.30;;;6.90;99.90;;;;;;5028108;28;20081;-70
2022/05/02 04:51:34;;;;;;;0.50;0.50;;;6.90;99.90;;;;;;5015765;28;20056;-69
2022/05/02 04:53:59;;;;;;;0.10;0.10;;;6.90;99.90;;;;;;5030384;28;20049;-70
2022/05/02 04:56:25;;;;;;;0.32;0.32;;;6.90;99.90;;;;;;5027605;28;20052;-70
2022/05/02 04:58:51;;;;;;;0.55;0.55;;;6.90;99.90;;;;;;5021330;28;20092;-69
2022/05/02 05:01:16;;;;;;;0.10;0.10;;;7.00;99.90;;;;;;5028763;28;20041;-69
2022/05/02 05:03:42;;;;;;;0.10;0.10;;;7.00;99.90;;;;;;5016766;28;20060;-69
2022/05/02 05:06:08;;;;;;;0.00;0.00;;;7.00;99.90;;;;;;5028806;28;20178;-70
2022/05/02 05:08:34;;;;;;;0.10;0.10;;;7.10;99.90;;;;;;5026058;28;20464;-69
2022/05/02 05:11:16;;;;;;;1.85;1.75;;;7.20;99.90;;;;;;5029455;28;20044;-69
2022/05/02 05:17:20;;;;;;;0.40;0.40;;;7.30;99.90;;;;;;5029248;28;20058;-69
2022/05/02 05:20:07;;;;;;;0.45;0.45;;;7.30;99.90;;;;;;5018671;28;20046;-70
2022/05/02 05:22:41;;;;;;;0.57;0.57;;;7.40;99.90;;;;;;5017621;28;20508;-70
2022/05/02 05:25:19;;;;;;;0.38;0.38;;;7.40;99.90;;;;;;5027429;28;20150;-69
2022/05/02 05:28:06;;;;;;;0.45;0.45;;;7.50;99.90;;;;;;5019440;28;20048;-69
2022/05/02 05:30:40;;;;;;;0.57;0.57;;;7.60;99.90;;;;;;5017231;28;20052;-69
2022/05/02 05:33:40;;;;;;;0.13;0.13;;;7.60;99.90;;;;;;5024648;28;20046;-70
2022/05/02 05:36:33;;;;;;;0.63;0.63;;;7.70;99.90;;;;;;5021932;28;20416;-69
2022/05/02 05:39:05;;;;;;;0.20;0.20;;;7.80;99.90;;;;;;5024307;28;20045;-69
2022/05/02 05:41:59;;;;;;;0.10;0.10;;;7.80;99.90;;;;;;5030308;28;20310;-69
2022/05/02 05:44:34;;;;;;;0.25;0.25;;;7.90;99.90;;;;;;5023944;28;20052;-70
2022/05/02 05:47:14;;;;;;;0.00;0.00;;;8.00;99.90;;;;;;5029935;28;20049;-69
2022/05/02 05:49:56;;;;;;;0.10;0.10;;;8.10;99.90;;;;;;5023803;28;20160;-69
2022/05/02 05:52:45;;;;;;;0.00;0.00;;;8.10;99.90;;;;;;5027436;28;20505;-70
2022/05/02 05:55:17;;;;;;;0.15;0.15;;;8.20;99.90;;;;;;5026200;28;20068;-70
2022/05/02 05:58:05;;;;;;;0.15;0.15;;;8.30;99.90;;;;;;5028638;28;20049;-69
2022/05/02 06:00:36;;;;;;;0.10;0.10;;;8.40;99.90;;;;;;5025533;28;20132;-69
2022/05/02 06:03:13;;;;;;;0.10;0.10;;;8.40;99.90;;;;;;5024064;28;20046;-70
2022/05/02 06:05:40;;;;;;;0.28;0.17;;;8.50;99.90;;;;;;5015347;28;20066;-69
2022/05/02 06:08:13;;;;;;;0.13;0.13;;;8.60;99.90;;;;;;5022041;28;20115;-69
2022/05/02 06:10:42;;;;;;;0.10;0.10;;;8.60;99.90;;;;;;5023205;28;20049;-70
2022/05/02 06:13:09;;;;;;;0.10;0.10;;;8.70;99.90;;;;;;5017693;28;20059;-70
2022/05/02 06:18:28;;;;;;;0.10;0.10;;;8.80;99.90;;;;;;5025831;28;20049;-69
2022/05/02 06:21:00;;;;;;;0.17;0.17;;;8.90;99.90;;;;;;5022076;28;20046;-70
2022/05/02 06:23:30;;;;;;;1.42;1.10;;;8.90;99.90;;;;;;5025502;28;20161;-70
2022/05/02 06:25:56;;;;;;;0.10;0.10;;;8.90;99.90;;;;;;5029814;28;20103;-70
2022/05/02 06:28:28;;;;;;;0.10;0.10;;;9.10;99.90;;;;;;5028888;28;20071;-70
2022/05/02 06:30:58;;;;;;;0.10;0.10;;;9.20;99.90;;;;;;5023746;28;20038;-70
2022/05/02 06:33:24;;;;;;;0.20;0.20;;;9.30;99.90;;;;;;5015908;28;20042;-70
2022/05/02 06:36:26;;;;;;;0.20;0.20;;;9.30;99.90;;;;;;5027954;28;20679;-70
2022/05/02 06:39:04;;;;;;;4.80;0.90;;;9.40;99.90;;;;;;5023957;28;20405;-70
2022/05/02 06:41:38;;;;;;;0.10;0.10;;;9.50;99.90;;;;;;5014063;28;20037;-70
2022/05/02 06:44:23;;;;;;;0.03;0.03;;;9.50;99.90;;;;;;5024323;28;20049;-70
2022/05/02 06:47:03;;;;;;;0.10;0.10;;;9.70;99.90;;;;;;5012861;28;20112;-70
2022/05/02 06:49:32;;;;;;;0.10;0.10;;;9.70;99.90;;;;;;5013954;28;20127;-70
2022/05/02 06:51:58;;;;;;;0.17;0.17;;;9.80;99.90;;;;;;5016397;28;20188;-70
2022/05/02 06:54:38;;;;;;;0.10;0.10;;;9.90;99.90;;;;;;5029202;28;20045;-70
2022/05/02 06:57:37;;;;;;;0.00;0.00;;;10.00;99.90;;;;;;5025202;28;20050;-70
2022/05/02 07:00:06;;;;;;;0.10;0.10;;;10.10;99.90;;;;;;5016555;28;20045;-70
2022/05/02 07:03:26;;;;;;;0.20;0.20;;;10.10;99.90;;;;;;5027288;28;20069;-70
2022/05/02 07:06:07;;;;;;;0.00;0.00;;;10.20;99.90;;;;;;5018603;28;20578;-71
2022/05/02 07:08:46;;;;;;;0.10;0.10;;;10.30;99.90;;;;;;5025347;28;20045;-71
2022/05/02 07:11:18;;;;;;;0.30;0.30;;;10.40;99.90;;;;;;5021371;28;20071;-70
2022/05/02 07:14:03;;;;;;;0.20;0.20;;;10.40;99.90;;;;;;5026338;28;20527;-71
2022/05/02 07:16:31;;;;;;;0.10;0.10;;;10.50;99.90;;;;;;5027482;28;20069;-71
2022/05/02 07:19:11;;;;;;;0.00;0.00;;;10.60;99.90;;;;;;5023111;28;20049;-71
2022/05/02 07:21:42;;;;;;;0.00;0.00;;;10.60;99.90;;;;;;5025240;28;20045;-71
2022/05/02 07:24:12;;;;;;;0.00;0.00;;;10.70;99.90;;;;;;5018499;28;20061;-71
2022/05/02 07:26:38;;;;;;;0.00;0.00;;;10.80;99.90;;;;;;5010149;28;20054;-71
2022/05/02 07:29:04;;;;;;;0.10;0.10;;;10.80;99.90;;;;;;5016857;28;20401;-71
2022/05/02 07:31:31;;;;;;;0.00;0.00;;;10.80;99.90;;;;;;5022118;28;20052;-71
2022/05/02 07:33:57;;;;;;;0.50;0.35;;;10.90;99.90;;;;;;5023207;28;20067;-71
2022/05/02 07:36:25;;;;;;;0.17;0.17;;;11.00;99.90;;;;;;5015291;28;20406;-71
2022/05/02 07:38:53;;;;;;;0.00;0.00;;;11.00;99.90;;;;;;5028634;28;20425;-71
2022/05/02 07:41:27;;;;;;;0.00;0.00;;;11.20;99.90;;;;;;5023883;28;20049;-71
2022/05/02 07:44:03;;;;;;;0.20;0.20;;;11.10;99.90;;;;;;5014912;28;20069;-71
2022/05/02 07:46:35;;;;;;;0.20;0.20;;;11.30;99.90;;;;;;5025793;28;20053;-71
2022/05/02 07:49:03;;;;;;;0.10;0.10;;;11.20;99.90;;;;;;5027615;28;20053;-71
2022/05/02 07:51:29;;;;;;;0.10;0.10;;;11.30;99.90;;;;;;5012937;28;20091;-71
2022/05/02 07:53:58;;;;;;;0.10;0.10;;;11.40;99.90;;;;;;5022258;28;20064;-71
2022/05/02 07:56:26;;;;;;;0.08;0.08;;;11.50;99.90;;;;;;5024424;28;20041;-71
2022/05/02 07:58:55;;;;;;;0.10;0.10;;;11.50;99.90;;;;;;5020324;28;20045;-72
2022/05/02 08:01:23;;;;;;;0.40;0.40;;;11.60;99.90;;;;;;5020440;28;20194;-71
2022/05/02 08:03:48;;;;;;;0.30;0.30;;;11.60;99.90;;;;;;5026481;28;20050;-71
2022/05/02 08:06:28;;;;;;;0.00;0.00;;;11.60;99.90;;;;;;5027200;28;20076;-71
2022/05/02 08:09:15;;;;;;;0.20;0.20;;;11.70;99.90;;;;;;5014585;28;20117;-72
2022/05/02 08:12:06;;;;;;;0.20;0.20;;;11.50;99.90;;;;;;5024179;28;20483;-71
2022/05/02 08:15:14;;;;;;;0.05;0.05;;;11.70;99.90;;;;;;5019610;28;20049;-71
2022/05/02 08:18:02;;;;;;;0.10;0.10;;;11.80;99.90;;;;;;4981090;28;20050;-72
2022/05/02 08:20:48;;;;;;;0.10;0.10;;;11.90;99.90;;;;;;5017930;28;20090;-72
2022/05/02 08:29:39;;;;;;;0.10;0.10;;;12.10;99.90;;;;;;5017490;28;20111;-72
2022/05/02 08:32:10;;;;;;;0.10;0.10;;;12.30;99.90;;;;;;5026591;28;20054;-71
2022/05/02 08:34:39;;;;;;;0.10;0.10;;;12.40;99.90;;;;;;5011509;28;20037;-71
2022/05/02 08:37:41;;;;;;;0.10;0.10;;;12.40;99.90;;;;;;5026921;28;20504;-71
2022/05/02 08:40:14;;;;;;;0.00;0.00;;;12.40;99.90;;;;;;5022233;28;20499;-71
2022/05/02 08:42:41;;;;;;;;;;;12.30;99.90;;;;;;5019439;28;20073;-72
2022/05/02 08:45:30;;;;;;;0.00;0.00;;;12.20;99.90;;;;;;5026419;28;20619;-72
2022/05/02 08:48:35;;;;;;;0.45;0.45;;;12.40;99.90;;;;;;5016165;28;20405;-72
2022/05/02 08:51:28;;;;;;;0.10;0.10;;;12.50;99.90;;;;;;5007465;28;20053;-71
2022/05/02 08:54:18;;;;;;;0.10;0.10;;;12.60;99.90;;;;;;5019993;28;20065;-71
2022/05/02 08:57:07;;;;;;;0.20;0.20;;;12.60;99.90;;;;;;5014213;28;20504;-71
2022/05/02 09:00:07;;;;;;;0.00;0.00;;;13.20;99.90;;;;;;5021781;28;20046;-71
2022/05/02 09:02:55;;;;;;;1.58;1.45;;;14.00;99.90;;;;;;5012685;28;20042;-71
2022/05/02 09:05:40;;;;;;;0.30;0.30;;;14.50;99.90;;;;;;5018490;28;20551;-71
2022/05/02 09:08:38;;;;;;;0.10;0.10;;;15.50;99.90;;;;;;5021284;28;20057;-71
2022/05/02 09:11:34;;;;;;;0.90;0.80;;;16.20;99.90;;;;;;5020417;28;20034;-71
2022/05/02 09:14:11;;;;;;;0.20;0.20;;;16.70;99.90;;;;;;5012557;28;20127;-71
2022/05/02 09:17:12;;;;;;;0.08;0.08;;;16.60;97.50;;;;;;5019378;28;20168;-70
2022/05/02 09:20:03;;;;;;;0.10;0.10;;;16.70;98.70;;;;;;5007942;28;20053;-71
2022/05/02 09:22:49;;;;;;;0.10;0.10;;;17.20;98.50;;;;;;5025509;28;20119;-70
2022/05/02 09:25:50;;;;;;;0.05;0.05;;;17.40;98.20;;;;;;5031455;28;20064;-71
2022/05/02 09:28:40;;;;;;;0.45;0.30;;;17.70;98.10;;;;;;5012563;28;20080;-70
2022/05/02 09:31:14;;;;;;;0.03;0.03;;;17.90;97.40;;;;;;5020744;28;20057;-69
2022/05/02 09:34:16;;;;;;;0.28;0.28;;;17.60;95.50;;;;;;5026117;28;20049;-69
2022/05/02 09:36:46;;;;;;;0.15;0.15;;;17.80;95.90;;;;;;5040048;28;20054;-68
2022/05/02 09:39:14;;;;;;;0.30;0.30;;;18.20;96.10;;;;;;5020220;28;20417;-69
2022/05/02 09:42:08;;;;;;;0.15;0.15;;;18.10;95.00;;;;;;5027511;28;20045;-69
2022/05/02 09:51:20;;;;;;;0.00;0.00;;;17.40;96.40;;;;;;5021818;28;20392;-69
2022/05/02 09:56:37;;;;;;;0.20;0.20;;;17.70;95.60;;;;;;5012496;28;20062;-68
2022/05/02 09:57:15;;;;;;;1.63;0.65;;;18.30;95.40;;;;;;5017896;28;20569;-68
2022/05/02 09:59:47;;;;;;;0.20;0.20;;;18.00;94.60;;;;;;5012489;28;20472;-67
2022/05/02 10:02:21;;;;;;;0.10;0.10;;;18.00;93.80;;;;;;5011305;28;20091;-68
2022/05/02 10:05:06;;;;;;;1.75;0.73;;;18.50;94.20;;;;;;5011023;28;20049;-68
2022/05/02 10:07:47;;;;;;;0.00;0.00;;;18.50;93.40;;;;;;5019287;28;20430;-68
2022/05/02 10:10:24;;;;;;;0.00;0.00;;;17.60;93.80;;;;;;5023905;28;20493;-68
2022/05/02 10:13:04;;;;;;;0.10;0.10;;;17.10;94.10;;;;;;5024202;28;20049;-68
2022/05/02 10:15:55;;;;;;;0.00;0.00;;;17.00;94.20;;;;;;5015066;28;20125;-69
2022/05/02 10:18:47;;;;;;;0.00;0.00;;;17.20;93.90;;;;;;5020583;28;20553;-69
2022/05/02 10:21:47;;;;;;;0.10;0.10;;;17.40;93.30;;;;;;5018353;28;20089;-69
2022/05/02 10:24:30;;;;;;;0.00;0.00;;;17.70;93.90;;;;;;5009156;28;20073;-68
2022/05/02 10:27:04;;;;;;;;;;;17.80;93.60;;;;;;5011439;28;20060;-69
2022/05/02 10:30:02;;;;;;;0.20;0.20;;;17.80;93.60;;;;;;5015423;28;19925;-68
2022/05/02 10:32:34;;;;;;;0.20;0.20;;;17.70;94.30;;;;;;5007264;28;20052;-69
2022/05/02 10:35:00;;;;;;;0.38;0.38;;;17.40;94.10;;;;;;5014788;28;20046;-68
2022/05/02 10:37:34;;;;;;;0.22;0.22;;;17.20;93.20;;;;;;5008565;28;20054;-68
2022/05/02 10:40:12;;;;;;;0.10;0.10;;;17.60;94.80;;;;;;5010688;28;20128;-68
2022/05/02 10:42:49;;;;;;;0.20;0.20;;;17.60;93.50;;;;;;5008139;28;20137;-68
2022/05/02 10:45:14;;;;;;;1.65;1.17;;;17.80;92.80;;;;;;5009708;28;20056;-68
2022/05/02 10:47:43;;;;;;;0.10;0.10;;;17.90;93.30;;;;;;5009428;28;20037;-68
2022/05/02 10:50:27;;;;;;;1.85;1.00;;;18.10;94.10;;;;;;5019248;28;20057;-68
2022/05/02 10:53:13;;;;;;;0.00;0.00;;;18.10;93.20;;;;;;5028675;28;20061;-68
2022/05/02 10:55:45;;;;;;;0.85;0.32;;;18.30;93.80;;;;;;5009361;28;20073;-68
2022/05/02 10:58:11;;;;;;;0.00;0.00;;;18.50;92.50;;;;;;5009153;28;20050;-68
2022/05/02 11:00:57;;;;;;;0.68;0.45;;;18.60;92.60;;;;;;5007169;28;20049;-68
2022/05/02 11:04:07;;;;;;;0.00;0.00;;;18.40;91.20;;;;;;5010584;28;20456;-69
2022/05/02 11:06:53;;;;;;;0.25;0.25;;;18.80;90.90;;;;;;5011588;28;20139;-68
2022/05/02 11:09:59;;;;;;;0.30;0.30;;;18.90;90.70;;;;;;5014423;28;20042;-69
2022/05/02 11:12:31;;;;;;;0.03;0.03;;;18.90;92.00;;;;;;5027900;28;20099;-69
2022/05/02 11:15:07;;;;;;;0.00;0.00;;;19.00;91.10;;;;;;5016536;28;20068;-69
2022/05/02 11:20:41;;;;;;;0.00;0.00;;;19.20;91.30;;;;;;5019380;28;20037;-69
2022/05/02 11:21:12;;;;;;;0.10;0.10;;;19.40;91.20;;;;;;5010458;28;20045;-69
2022/05/02 11:24:15;;;;;;;0.10;0.10;;;19.30;90.50;;;;;;5027322;28;20049;-68
2022/05/02 11:26:45;;;;;;;0.15;0.15;;;19.30;87.80;;;;;;5026741;28;20053;-68
2022/05/02 11:29:25;;;;;;;0.10;0.10;;;18.80;90.80;;;;;;5008756;28;20052;-68
2022/05/02 11:32:05;;;;;;;0.00;0.00;;;19.30;90.60;;;;;;5007925;28;20061;-68
2022/05/02 11:34:43;;;;;;;0.45;0.20;;;19.30;90.40;;;;;;5007999;28;22364;-68
2022/05/02 11:37:16;;;;;;;0.00;0.00;;;19.50;87.70;;;;;;5024828;28;20115;-68
2022/05/02 11:39:57;;;;;;;0.40;0.40;;;19.80;90.10;;;;;;5008396;28;20057;-68
2022/05/02 11:42:28;;;;;;;0.10;0.10;;;19.70;88.20;;;;;;5007923;28;20074;-68
2022/05/02 11:44:53;;;;;;;0.00;0.00;;;19.80;88.30;;;;;;5008759;28;20441;-68
2022/05/02 11:47:35;;;;;;;0.10;0.10;;;19.80;90.50;;;;;;5008277;28;20050;-69
2022/05/02 11:50:06;;;;;;;0.80;0.47;;;19.80;90.30;;;;;;5009188;28;20041;-69
2022/05/02 11:52:35;;;;;;;0.00;0.00;;;20.10;91.30;;;;;;5009605;28;20058;-70
2022/05/02 11:55:03;;;;;;;0.00;0.00;;;20.70;91.20;;;;;;5019401;28;20141;-70
2022/05/02 11:57:42;;;;;;;0.20;0.20;;;20.60;90.60;;;;;;5008201;28;20049;-69
2022/05/02 12:00:11;;;;;;;0.00;0.00;;;20.60;90.50;;;;;;5022583;28;20069;-69
2022/05/02 12:02:37;;;;;;;0.43;0.43;;;20.80;89.80;;;;;;5007671;28;20068;-69
2022/05/02 12:05:17;;;;;;;0.05;0.05;;;21.00;88.20;;;;;;5016095;28;20041;-69
2022/05/02 12:07:53;;;;;;;0.00;0.00;;;20.50;90.30;;;;;;5018644;28;20317;-68
2022/05/02 12:10:21;;;;;;;0.25;0.17;;;20.90;91.70;;;;;;5021594;28;20038;-69
2022/05/02 12:12:49;;;;;;;0.00;0.00;;;21.00;90.80;;;;;;5022423;28;20077;-68
2022/05/02 12:15:16;;;;;;;0.00;0.00;;;21.10;91.10;;;;;;5019322;28;20125;-68
2022/05/02 12:17:55;;;;;;;0.10;0.10;;;20.80;91.10;;;;;;5023032;28;20127;-69
2022/05/02 12:20:29;;;;;;;0.05;0.05;;;21.20;90.20;;;;;;5014671;28;20062;-67
2022/05/02 12:23:21;;;;;;;1.88;0.73;;;21.20;89.10;;;;;;5025026;28;20060;-69
2022/05/02 12:25:49;;;;;;;0.00;0.00;;;21.50;91.10;;;;;;5012712;28;20102;-69
2022/05/02 12:28:18;;;;;;;0.10;0.10;;;20.70;90.50;;;;;;5011161;28;20271;-70
2022/05/02 12:30:52;;;;;;;0.75;0.30;;;20.90;90.80;;;;;;5009065;28;20042;-69
2022/05/02 12:33:20;;;;;;;0.00;0.00;;;21.10;89.90;;;;;;5008783;28;20455;-69
2022/05/02 12:35:46;;;;;;;0.10;0.10;;;21.20;91.10;;;;;;5015627;28;21596;-69
2022/05/02 12:38:15;;;;;;;0.45;0.10;;;21.10;91.00;;;;;;5013823;28;20521;-69
2022/05/02 12:40:42;;;;;;;0.55;0.55;;;21.10;90.20;;;;;;5018637;28;20115;-67
2022/05/02 12:43:11;;;;;;;0.63;0.32;;;21.30;91.60;;;;;;5019937;28;20140;-71
2022/05/02 12:45:46;;;;;;;0.00;0.00;;;21.20;90.90;;;;;;5014737;28;20073;-72
2022/05/02 12:48:29;;;;;;;0.38;0.35;;;21.50;89.70;;;;;;5016455;28;20481;-70
2022/05/02 12:50:58;;;;;;;0.20;0.20;;;21.40;90.90;;;;;;5025506;28;20045;-69
2022/05/02 12:56:11;;;;;;;0.00;0.00;;;21.60;90.30;;;;;;5024966;28;20531;-69
2022/05/02 13:01:24;;;;;;;0.20;0.20;;;21.70;90.50;;;;;;5031240;28;20037;-69
2022/05/02 13:03:57;;;;;;;0.30;0.30;;;21.90;89.70;;;;;;5009853;28;20065;-69
2022/05/02 13:06:24;;;;;;;0.00;0.00;;;21.80;89.20;;;;;;5014162;28;20046;-69
2022/05/02 13:08:51;;;;;;;0.00;0.00;;;21.80;89.50;;;;;;5023318;28;20544;-68
2022/05/02 13:11:22;;;;;;;2.45;0.32;;;21.80;90.30;;;;;;5011671;28;20424;-68
2022/05/02 13:13:49;;;;;;;0.30;0.20;;;21.80;90.00;;;;;;5016672;28;20081;-68
2022/05/02 13:16:32;;;;;;;0.00;0.00;;;22.00;90.20;;;;;;5027036;28;20393;-67
2022/05/02 13:19:00;;;;;;;0.00;0.00;;;21.80;84.70;;;;;;5021100;28;20037;-68
2022/05/02 13:21:27;;;;;;;0.00;0.00;;;22.10;86.70;;;;;;5010393;28;20057;-68
2022/05/02 13:24:01;;;;;;;0.15;0.15;;;21.90;86.30;;;;;;5012020;28;20134;-68
2022/05/02 13:26:33;;;;;;;0.10;0.10;;;21.60;86.80;;;;;;5010086;28;20045;-68
2022/05/02 13:29:09;;;;;;;0.60;0.60;;;21.90;84.00;;;;;;5011867;28;20133;-68
2022/05/02 13:31:45;;;;;;;0.00;0.00;;;22.00;85.20;;;;;;5011550;28;20092;-68
2022/05/02 13:34:43;;;;;;;0.15;0.15;;;22.20;85.20;;;;;;5012414;28;20065;-67
2022/05/02 13:37:33;;;;;;;0.15;0.15;;;22.20;83.80;;;;;;5011757;28;20049;-67
2022/05/02 13:40:01;;;;;;;0.00;0.00;;;21.90;86.60;;;;;;5016615;28;20050;-67
2022/05/02 13:42:39;;;;;;;2.63;0.25;;;21.80;83.20;;;;;;5027390;28;20037;-67
2022/05/02 13:45:13;;;;;;;0.00;0.00;;;22.20;83.50;;;;;;5024129;28;20042;-67
2022/05/02 13:47:50;;;;;;;0.00;0.00;;;22.20;85.00;;;;;;5011143;28;20077;-67
2022/05/02 13:50:20;;;;;;;0.10;0.10;;;21.90;83.40;;;;;;5029527;28;20053;-67
2022/05/02 13:53:10;;;;;;;0.03;0.03;;;22.00;84.60;;;;;;5028415;28;20428;-68
2022/05/02 13:55:46;;;;;;;0.30;0.30;;;22.20;84.90;;;;;;5028836;28;20061;-68
2022/05/02 13:58:33;;;;;;;0.00;0.00;;;21.90;85.60;;;;;;5031535;28;20103;-68